sensor_id;sensor_type;location;lat;lon;timestamp;pressure;altitude;pressure_sealevel;temperature;humidity
29163;BME280;20331;53.144;8.208;2022-09-13T00:03:41;100796.75;;;18.16;95.82
29163;BME280;20331;53.144;8.208;2022-09-13T00:14:03;100766.69;;;17.99;96.73
29163;BME280;20331;53.144;8.208;2022-09-13T00:24:24;100751.47;;;17.66;100.00
29163;BME280;20331;53.144;8.208;2022-09-13T00:34:46;100741.59;;;17.68;100.00
29163;BME280;20331;53.144;8.208;2022-09-13T00:55:42;100732.16;;;17.93;99.71
29163;BME280;20331;53.144;8.208;2022-09-13T01:06:09;100721.91;;;17.63;100.00
29163;BME280;20331;53.144;8.208;2022-09-13T01:16:31;100699.47;;;17.59;100.00
29163;BME280;20331;53.144;8.208;2022-09-13T01:37:36;100663.72;;;17.74;100.00
29163;BME280;20331;53.144;8.208;2022-09-13T01:48:14;100657.59;;;17.73;100.00
29163;BME280;20331;53.144;8.208;2022-09-13T01:58:45;100645.19;;;17.83;100.00
29163;BME280;20331;53.144;8.208;2022-09-13T02:09:14;100655.22;;;17.80;100.00
29163;BME280;20331;53.144;8.208;2022-09-13T02:19:56;100644.19;;;17.67;100.00
29163;BME280;20331;53.144;8.208;2022-09-13T02:30:18;100643.69;;;17.81;100.00
29163;BME280;20331;53.144;8.208;2022-09-13T02:40:45;100624.06;;;17.66;100.00
29163;BME280;20331;53.144;8.208;2022-09-13T03:01:32;100625.72;;;17.67;100.00
29163;BME280;20331;53.144;8.208;2022-09-13T03:12:20;100615.88;;;17.69;100.00
29163;BME280;20331;53.144;8.208;2022-09-13T03:33:41;100625.16;;;17.73;100.00
29163;BME280;20331;53.144;8.208;2022-09-13T03:44:11;100636.56;;;17.64;100.00
29163;BME280;20331;53.144;8.208;2022-09-13T03:54:36;100643.66;;;17.63;100.00
29163;BME280;20331;53.144;8.208;2022-09-13T04:04:58;100641.16;;;17.62;100.00
29163;BME280;20331;53.144;8.208;2022-09-13T04:15:20;100638.97;;;17.57;100.00
29163;BME280;20331;53.144;8.208;2022-09-13T04:25:42;100634.16;;;17.53;100.00
29163;BME280;20331;53.144;8.208;2022-09-13T04:36:03;100644.06;;;17.41;100.00
29163;BME280;20331;53.144;8.208;2022-09-13T04:46:25;100643.63;;;17.46;100.00
29163;BME280;20331;53.144;8.208;2022-09-13T04:56:46;100649.19;;;17.43;100.00
29163;BME280;20331;53.144;8.208;2022-09-13T05:07:09;100657.59;;;17.56;100.00
29163;BME280;20331;53.144;8.208;2022-09-13T05:17:30;100644.16;;;17.49;100.00
29163;BME280;20331;53.144;8.208;2022-09-13T05:27:52;100644.72;;;17.43;100.00
29163;BME280;20331;53.144;8.208;2022-09-13T05:38:13;100642.44;;;17.58;100.00
29163;BME280;20331;53.144;8.208;2022-09-13T05:48:35;100659.63;;;17.62;100.00
29163;BME280;20331;53.144;8.208;2022-09-13T05:58:57;100656.69;;;17.65;100.00
29163;BME280;20331;53.144;8.208;2022-09-13T06:09:19;100654.06;;;17.65;100.00
29163;BME280;20331;53.144;8.208;2022-09-13T06:19:41;100659.03;;;17.68;100.00
29163;BME280;20331;53.144;8.208;2022-09-13T06:30:03;100679.97;;;17.69;100.00
29163;BME280;20331;53.144;8.208;2022-09-13T06:40:25;100668.78;;;17.85;100.00
29163;BME280;20331;53.144;8.208;2022-09-13T06:50:47;100680.03;;;17.87;100.00
29163;BME280;20331;53.144;8.208;2022-09-13T07:01:18;100683.94;;;17.83;100.00
29163;BME280;20331;53.144;8.208;2022-09-13T07:11:41;100677.63;;;18.11;100.00
29163;BME280;20331;53.144;8.208;2022-09-13T07:22:02;100689.16;;;18.10;100.00
29163;BME280;20331;53.144;8.208;2022-09-13T07:32:25;100705.31;;;17.80;100.00
29163;BME280;20331;53.144;8.208;2022-09-13T07:42:46;100705.06;;;17.73;100.00
29163;BME280;20331;53.144;8.208;2022-09-13T07:53:08;100713.22;;;17.80;100.00
29163;BME280;20331;53.144;8.208;2022-09-13T08:03:30;100723.84;;;17.97;100.00
29163;BME280;20331;53.144;8.208;2022-09-13T08:13:51;100741.72;;;18.21;100.00
29163;BME280;20331;53.144;8.208;2022-09-13T08:24:18;100731.78;;;18.49;100.00
29163;BME280;20331;53.144;8.208;2022-09-13T08:34:41;100741.94;;;18.54;100.00
29163;BME280;20331;53.144;8.208;2022-09-13T08:45:03;100743.69;;;18.88;100.00
29163;BME280;20331;53.144;8.208;2022-09-13T08:55:46;100750.59;;;18.64;100.00
29163;BME280;20331;53.144;8.208;2022-09-13T09:06:15;100756.84;;;18.80;97.97
29163;BME280;20331;53.144;8.208;2022-09-13T09:16:41;100745.38;;;18.89;95.20
29163;BME280;20331;53.144;8.208;2022-09-13T09:27:14;100743.81;;;19.04;92.93
29163;BME280;20331;53.144;8.208;2022-09-13T09:37:36;100751.72;;;19.47;88.75
29163;BME280;20331;53.144;8.208;2022-09-13T09:48:06;100757.53;;;19.25;82.64
29163;BME280;20331;53.144;8.208;2022-09-13T09:58:36;100752.53;;;19.81;76.57
29163;BME280;20331;53.144;8.208;2022-09-13T10:19:25;100746.81;;;19.93;68.33
29163;BME280;20331;53.144;8.208;2022-09-13T10:29:48;100750.16;;;19.62;70.35
29163;BME280;20331;53.144;8.208;2022-09-13T10:40:18;100746.34;;;19.98;68.77
29163;BME280;20331;53.144;8.208;2022-09-13T10:51:03;100751.75;;;20.45;66.47
29163;BME280;20331;53.144;8.208;2022-09-13T11:01:36;100757.06;;;20.53;64.69
29163;BME280;20331;53.144;8.208;2022-09-13T11:12:13;100755.75;;;20.73;64.42
29163;BME280;20331;53.144;8.208;2022-09-13T11:34:18;100737.53;;;20.46;66.26
29163;BME280;20331;53.144;8.208;2022-09-13T11:44:47;100742.84;;;20.70;66.45
29163;BME280;20331;53.144;8.208;2022-09-13T11:55:15;100735.22;;;20.51;65.87
29163;BME280;20331;53.144;8.208;2022-09-13T12:05:55;100735.91;;;20.77;59.24
29163;BME280;20331;53.144;8.208;2022-09-13T12:16:46;100746.47;;;20.69;59.42
29163;BME280;20331;53.144;8.208;2022-09-13T12:38:06;100730.78;;;20.92;62.87
29163;BME280;20331;53.144;8.208;2022-09-13T13:10:31;100728.91;;;21.24;60.71
29163;BME280;20331;53.144;8.208;2022-09-13T13:41:59;100721.69;;;20.94;59.50
29163;BME280;20331;53.144;8.208;2022-09-13T14:24:36;100722.63;;;20.53;62.29
29163;BME280;20331;53.144;8.208;2022-09-13T14:34:33;100714.66;;;20.30;66.69
29163;BME280;20331;53.144;8.208;2022-09-13T14:44:56;100719.63;;;20.40;67.32
29163;BME280;20331;53.144;8.208;2022-09-13T14:55:35;100716.22;;;20.88;65.21
29163;BME280;20331;53.144;8.208;2022-09-13T15:05:59;100715.34;;;20.71;62.85
29163;BME280;20331;53.144;8.208;2022-09-13T15:16:25;100720.13;;;20.36;65.52
29163;BME280;20331;53.144;8.208;2022-09-13T15:27:01;100728.06;;;20.28;62.60
29163;BME280;20331;53.144;8.208;2022-09-13T15:37:31;100729.34;;;20.16;63.75
29163;BME280;20331;53.144;8.208;2022-09-13T15:47:53;100732.22;;;20.46;63.46
29163;BME280;20331;53.144;8.208;2022-09-13T15:58:15;100738.06;;;20.82;62.64
29163;BME280;20331;53.144;8.208;2022-09-13T16:08:36;100748.94;;;20.47;61.95
29163;BME280;20331;53.144;8.208;2022-09-13T16:18:58;100739.06;;;20.00;64.21
29163;BME280;20331;53.144;8.208;2022-09-13T16:29:20;100744.75;;;19.71;64.54
29163;BME280;20331;53.144;8.208;2022-09-13T16:39:41;100742.63;;;19.83;63.13
29163;BME280;20331;53.144;8.208;2022-09-13T16:50:03;100742.00;;;19.89;64.29
29163;BME280;20331;53.144;8.208;2022-09-13T17:00:26;100748.50;;;19.61;63.17
29163;BME280;20331;53.144;8.208;2022-09-13T17:10:48;100749.00;;;19.31;64.98
29163;BME280;20331;53.144;8.208;2022-09-13T17:21:10;100752.91;;;19.27;64.49
29163;BME280;20331;53.144;8.208;2022-09-13T17:31:31;100748.63;;;19.09;65.93
29163;BME280;20331;53.144;8.208;2022-09-13T17:41:53;100758.72;;;18.88;67.25
29163;BME280;20331;53.144;8.208;2022-09-13T17:52:14;100754.72;;;18.66;69.41
29163;BME280;20331;53.144;8.208;2022-09-13T18:02:36;100762.16;;;18.45;70.18
29163;BME280;20331;53.144;8.208;2022-09-13T18:12:57;100756.50;;;18.14;72.48
29163;BME280;20331;53.144;8.208;2022-09-13T18:23:19;100754.06;;;18.03;73.53
29163;BME280;20331;53.144;8.208;2022-09-13T18:33:40;100757.06;;;18.08;74.49
29163;BME280;20331;53.144;8.208;2022-09-13T18:44:02;100756.13;;;17.82;76.15
29163;BME280;20331;53.144;8.208;2022-09-13T18:54:25;100751.13;;;17.79;76.53
29163;BME280;20331;53.144;8.208;2022-09-13T19:04:46;100760.31;;;17.75;76.21
29163;BME280;20331;53.144;8.208;2022-09-13T19:15:08;100760.94;;;17.59;76.82
29163;BME280;20331;53.144;8.208;2022-09-13T19:25:30;100743.66;;;17.29;78.33
29163;BME280;20331;53.144;8.208;2022-09-13T19:35:54;100751.84;;;17.35;77.28
29163;BME280;20331;53.144;8.208;2022-09-13T19:46:16;100734.97;;;17.09;78.73
29163;BME280;20331;53.144;8.208;2022-09-13T19:56:40;100731.34;;;17.29;78.17
29163;BME280;20331;53.144;8.208;2022-09-13T20:07:02;100737.75;;;17.17;78.30
29163;BME280;20331;53.144;8.208;2022-09-13T20:17:24;100722.72;;;16.81;80.38
29163;BME280;20331;53.144;8.208;2022-09-13T20:27:45;100737.25;;;16.85;79.05
29163;BME280;20331;53.144;8.208;2022-09-13T20:38:07;100729.22;;;16.77;79.84
29163;BME280;20331;53.144;8.208;2022-09-13T20:48:28;100726.88;;;16.65;80.21
29163;BME280;20331;53.144;8.208;2022-09-13T20:58:53;100727.59;;;16.57;80.77
29163;BME280;20331;53.144;8.208;2022-09-13T21:09:17;100716.72;;;16.13;83.95
29163;BME280;20331;53.144;8.208;2022-09-13T21:19:39;100709.78;;;15.93;86.52
29163;BME280;20331;53.144;8.208;2022-09-13T21:30:00;100715.06;;;16.12;85.58
29163;BME280;20331;53.144;8.208;2022-09-13T21:40:22;100700.91;;;15.94;86.23
29163;BME280;20331;53.144;8.208;2022-09-13T21:50:43;100691.03;;;15.68;88.08
29163;BME280;20331;53.144;8.208;2022-09-13T22:11:27;100695.59;;;15.66;89.52
29163;BME280;20331;53.144;8.208;2022-09-13T22:21:52;100694.66;;;15.37;90.70
29163;BME280;20331;53.144;8.208;2022-09-13T22:32:13;100680.59;;;15.47;89.29
29163;BME280;20331;53.144;8.208;2022-09-13T22:42:35;100691.91;;;15.39;90.74
29163;BME280;20331;53.144;8.208;2022-09-13T22:52:56;100689.56;;;15.45;90.23
29163;BME280;20331;53.144;8.208;2022-09-13T23:03:17;100678.59;;;15.31;91.41
29163;BME280;20331;53.144;8.208;2022-09-13T23:13:39;100675.19;;;15.19;92.01
29163;BME280;20331;53.144;8.208;2022-09-13T23:24:01;100667.09;;;15.02;92.89
29163;BME280;20331;53.144;8.208;2022-09-13T23:34:24;100667.66;;;15.05;93.43
29163;BME280;20331;53.144;8.208;2022-09-13T23:44:46;100646.91;;;14.72;94.34
29163;BME280;20331;53.144;8.208;2022-09-13T23:55:07;100641.84;;;14.80;94.88
